sensor_id;sensor_type;location;lat;lon;timestamp;P1;durP1;ratioP1;P2;durP2;ratioP2
68765;SDS011;55756;45.582;11.484;2023-05-03T00:01:00;8.77;;;4.32;;
68765;SDS011;55756;45.582;11.484;2023-05-03T00:03:27;7.95;;;4.25;;
68765;SDS011;55756;45.582;11.484;2023-05-03T00:05:53;10.55;;;4.32;;
68765;SDS011;55756;45.582;11.484;2023-05-03T00:08:18;7.72;;;4.50;;
68765;SDS011;55756;45.582;11.484;2023-05-03T00:10:45;8.80;;;4.63;;
68765;SDS011;55756;45.582;11.484;2023-05-03T00:13:11;8.75;;;4.30;;
68765;SDS011;55756;45.582;11.484;2023-05-03T00:15:37;9.10;;;4.60;;
68765;SDS011;55756;45.582;11.484;2023-05-03T00:18:03;8.02;;;4.30;;
68765;SDS011;55756;45.582;11.484;2023-05-03T00:20:29;8.70;;;4.22;;
68765;SDS011;55756;45.582;11.484;2023-05-03T00:22:55;8.35;;;4.40;;
68765;SDS011;55756;45.582;11.484;2023-05-03T00:25:21;8.43;;;4.57;;
68765;SDS011;55756;45.582;11.484;2023-05-03T00:27:46;8.82;;;4.10;;
68765;SDS011;55756;45.582;11.484;2023-05-03T00:30:12;8.85;;;4.30;;
68765;SDS011;55756;45.582;11.484;2023-05-03T00:32:38;10.27;;;4.82;;
68765;SDS011;55756;45.582;11.484;2023-05-03T00:35:04;10.32;;;4.50;;
68765;SDS011;55756;45.582;11.484;2023-05-03T00:37:30;10.73;;;4.28;;
68765;SDS011;55756;45.582;11.484;2023-05-03T00:39:56;8.07;;;4.28;;
68765;SDS011;55756;45.582;11.484;2023-05-03T00:42:22;8.38;;;4.30;;
68765;SDS011;55756;45.582;11.484;2023-05-03T00:44:48;10.15;;;4.30;;
68765;SDS011;55756;45.582;11.484;2023-05-03T00:47:14;9.05;;;4.10;;
68765;SDS011;55756;45.582;11.484;2023-05-03T00:49:40;10.48;;;4.10;;
68765;SDS011;55756;45.582;11.484;2023-05-03T00:52:07;8.23;;;3.70;;
68765;SDS011;55756;45.582;11.484;2023-05-03T00:54:33;7.88;;;4.10;;
68765;SDS011;55756;45.582;11.484;2023-05-03T00:57:00;7.72;;;3.95;;
68765;SDS011;55756;45.582;11.484;2023-05-03T00:59:28;7.20;;;4.00;;
68765;SDS011;55756;45.582;11.484;2023-05-03T01:01:54;8.52;;;4.07;;
68765;SDS011;55756;45.582;11.484;2023-05-03T01:04:19;8.85;;;4.10;;
68765;SDS011;55756;45.582;11.484;2023-05-03T01:07:02;7.28;;;3.92;;
68765;SDS011;55756;45.582;11.484;2023-05-03T01:09:59;8.80;;;4.00;;
68765;SDS011;55756;45.582;11.484;2023-05-03T01:15:14;8.50;;;4.22;;
68765;SDS011;55756;45.582;11.484;2023-05-03T01:17:50;9.32;;;4.00;;
68765;SDS011;55756;45.582;11.484;2023-05-03T01:20:22;7.97;;;4.20;;
68765;SDS011;55756;45.582;11.484;2023-05-03T01:22:55;6.88;;;3.72;;
68765;SDS011;55756;45.582;11.484;2023-05-03T01:25:36;7.32;;;3.50;;
68765;SDS011;55756;45.582;11.484;2023-05-03T01:28:02;6.35;;;3.30;;
68765;SDS011;55756;45.582;11.484;2023-05-03T01:30:27;7.40;;;3.20;;
68765;SDS011;55756;45.582;11.484;2023-05-03T01:35:51;7.95;;;3.35;;
68765;SDS011;55756;45.582;11.484;2023-05-03T01:38:23;7.00;;;3.20;;
68765;SDS011;55756;45.582;11.484;2023-05-03T01:40:50;7.85;;;2.92;;
68765;SDS011;55756;45.582;11.484;2023-05-03T01:43:18;5.95;;;2.80;;
68765;SDS011;55756;45.582;11.484;2023-05-03T01:45:45;7.35;;;2.90;;
68765;SDS011;55756;45.582;11.484;2023-05-03T01:48:15;7.93;;;2.60;;
68765;SDS011;55756;45.582;11.484;2023-05-03T01:50:42;6.20;;;2.78;;
68765;SDS011;55756;45.582;11.484;2023-05-03T01:53:08;5.85;;;2.80;;
68765;SDS011;55756;45.582;11.484;2023-05-03T01:55:34;7.07;;;2.75;;
68765;SDS011;55756;45.582;11.484;2023-05-03T01:58:00;5.22;;;2.58;;
68765;SDS011;55756;45.582;11.484;2023-05-03T02:00:26;5.60;;;2.60;;
68765;SDS011;55756;45.582;11.484;2023-05-03T02:02:52;5.32;;;2.53;;
68765;SDS011;55756;45.582;11.484;2023-05-03T02:05:17;7.13;;;2.50;;
68765;SDS011;55756;45.582;11.484;2023-05-03T02:07:43;5.63;;;2.50;;
68765;SDS011;55756;45.582;11.484;2023-05-03T02:10:09;5.97;;;2.40;;
68765;SDS011;55756;45.582;11.484;2023-05-03T02:12:44;6.18;;;2.58;;
68765;SDS011;55756;45.582;11.484;2023-05-03T02:15:11;5.72;;;2.70;;
68765;SDS011;55756;45.582;11.484;2023-05-03T02:17:37;5.57;;;2.67;;
68765;SDS011;55756;45.582;11.484;2023-05-03T02:20:03;6.97;;;2.60;;
68765;SDS011;55756;45.582;11.484;2023-05-03T02:22:31;7.93;;;2.90;;
68765;SDS011;55756;45.582;11.484;2023-05-03T02:24:57;6.50;;;2.80;;
68765;SDS011;55756;45.582;11.484;2023-05-03T02:27:23;6.82;;;2.83;;
68765;SDS011;55756;45.582;11.484;2023-05-03T02:29:49;6.78;;;3.08;;
68765;SDS011;55756;45.582;11.484;2023-05-03T02:32:16;6.38;;;3.13;;
68765;SDS011;55756;45.582;11.484;2023-05-03T02:34:45;5.93;;;3.07;;
68765;SDS011;55756;45.582;11.484;2023-05-03T02:37:15;5.95;;;3.13;;
68765;SDS011;55756;45.582;11.484;2023-05-03T02:39:42;6.18;;;3.00;;
68765;SDS011;55756;45.582;11.484;2023-05-03T02:42:08;6.47;;;3.30;;
68765;SDS011;55756;45.582;11.484;2023-05-03T02:44:35;6.97;;;3.28;;
68765;SDS011;55756;45.582;11.484;2023-05-03T02:47:00;7.07;;;3.25;;
68765;SDS011;55756;45.582;11.484;2023-05-03T02:49:26;6.85;;;3.10;;
68765;SDS011;55756;45.582;11.484;2023-05-03T02:51:52;8.50;;;3.50;;
68765;SDS011;55756;45.582;11.484;2023-05-03T02:54:18;6.97;;;3.17;;
68765;SDS011;55756;45.582;11.484;2023-05-03T02:56:44;6.45;;;3.40;;
68765;SDS011;55756;45.582;11.484;2023-05-03T02:59:10;7.50;;;3.22;;
68765;SDS011;55756;45.582;11.484;2023-05-03T03:01:37;7.13;;;3.40;;
68765;SDS011;55756;45.582;11.484;2023-05-03T03:04:04;7.95;;;3.70;;
68765;SDS011;55756;45.582;11.484;2023-05-03T03:06:30;7.22;;;3.97;;
68765;SDS011;55756;45.582;11.484;2023-05-03T03:08:57;8.65;;;4.13;;
68765;SDS011;55756;45.582;11.484;2023-05-03T03:11:22;7.05;;;4.20;;
68765;SDS011;55756;45.582;11.484;2023-05-03T03:13:49;8.02;;;4.60;;
68765;SDS011;55756;45.582;11.484;2023-05-03T03:16:15;7.50;;;4.50;;
68765;SDS011;55756;45.582;11.484;2023-05-03T03:18:41;9.05;;;5.10;;
68765;SDS011;55756;45.582;11.484;2023-05-03T03:21:07;7.80;;;4.85;;
68765;SDS011;55756;45.582;11.484;2023-05-03T03:23:34;8.25;;;5.10;;
68765;SDS011;55756;45.582;11.484;2023-05-03T03:26:00;10.02;;;5.30;;
68765;SDS011;55756;45.582;11.484;2023-05-03T03:28:26;9.05;;;5.10;;
68765;SDS011;55756;45.582;11.484;2023-05-03T03:30:53;10.02;;;5.30;;
68765;SDS011;55756;45.582;11.484;2023-05-03T03:33:22;10.25;;;5.13;;
68765;SDS011;55756;45.582;11.484;2023-05-03T03:35:49;10.13;;;4.78;;
68765;SDS011;55756;45.582;11.484;2023-05-03T03:38:17;10.32;;;5.13;;
68765;SDS011;55756;45.582;11.484;2023-05-03T03:40:51;10.20;;;5.43;;
68765;SDS011;55756;45.582;11.484;2023-05-03T03:43:18;9.80;;;4.82;;
68765;SDS011;55756;45.582;11.484;2023-05-03T03:45:45;10.30;;;4.80;;
68765;SDS011;55756;45.582;11.484;2023-05-03T03:48:13;10.93;;;4.60;;
68765;SDS011;55756;45.582;11.484;2023-05-03T03:50:38;9.48;;;4.18;;
68765;SDS011;55756;45.582;11.484;2023-05-03T03:53:05;8.70;;;4.38;;
68765;SDS011;55756;45.582;11.484;2023-05-03T03:55:31;8.68;;;4.18;;
68765;SDS011;55756;45.582;11.484;2023-05-03T03:57:57;7.82;;;4.35;;
68765;SDS011;55756;45.582;11.484;2023-05-03T04:00:24;8.50;;;3.95;;
68765;SDS011;55756;45.582;11.484;2023-05-03T04:02:58;7.25;;;4.05;;
68765;SDS011;55756;45.582;11.484;2023-05-03T04:05:24;7.63;;;3.67;;
68765;SDS011;55756;45.582;11.484;2023-05-03T04:07:49;8.40;;;3.90;;
68765;SDS011;55756;45.582;11.484;2023-05-03T04:10:17;7.88;;;3.75;;
68765;SDS011;55756;45.582;11.484;2023-05-03T04:12:43;7.82;;;3.60;;
68765;SDS011;55756;45.582;11.484;2023-05-03T04:15:11;8.03;;;3.73;;
68765;SDS011;55756;45.582;11.484;2023-05-03T04:17:38;6.70;;;3.40;;
68765;SDS011;55756;45.582;11.484;2023-05-03T04:20:07;7.20;;;3.13;;
68765;SDS011;55756;45.582;11.484;2023-05-03T04:22:35;6.47;;;3.30;;
68765;SDS011;55756;45.582;11.484;2023-05-03T04:25:07;6.40;;;3.00;;
68765;SDS011;55756;45.582;11.484;2023-05-03T04:27:35;6.95;;;2.80;;
68765;SDS011;55756;45.582;11.484;2023-05-03T04:30:04;5.00;;;2.60;;
68765;SDS011;55756;45.582;11.484;2023-05-03T04:32:31;7.75;;;2.70;;
68765;SDS011;55756;45.582;11.484;2023-05-03T04:35:03;6.57;;;2.30;;
68765;SDS011;55756;45.582;11.484;2023-05-03T04:37:34;6.00;;;2.17;;
68765;SDS011;55756;45.582;11.484;2023-05-03T04:40:01;5.80;;;2.00;;
68765;SDS011;55756;45.582;11.484;2023-05-03T04:42:41;5.15;;;1.73;;
68765;SDS011;55756;45.582;11.484;2023-05-03T04:45:08;3.72;;;1.80;;
68765;SDS011;55756;45.582;11.484;2023-05-03T04:47:35;3.75;;;1.50;;
68765;SDS011;55756;45.582;11.484;2023-05-03T04:50:01;4.20;;;1.80;;
68765;SDS011;55756;45.582;11.484;2023-05-03T04:52:28;4.97;;;1.70;;
68765;SDS011;55756;45.582;11.484;2023-05-03T04:54:54;4.50;;;2.05;;
68765;SDS011;55756;45.582;11.484;2023-05-03T04:57:21;7.00;;;2.33;;
68765;SDS011;55756;45.582;11.484;2023-05-03T04:59:47;5.20;;;2.50;;
68765;SDS011;55756;45.582;11.484;2023-05-03T05:02:13;7.47;;;2.90;;
68765;SDS011;55756;45.582;11.484;2023-05-03T05:04:39;6.82;;;3.38;;
68765;SDS011;55756;45.582;11.484;2023-05-03T05:07:08;6.25;;;2.60;;
68765;SDS011;55756;45.582;11.484;2023-05-03T05:09:34;5.05;;;2.50;;
68765;SDS011;55756;45.582;11.484;2023-05-03T05:12:01;5.03;;;2.55;;
68765;SDS011;55756;45.582;11.484;2023-05-03T05:14:33;6.72;;;2.38;;
68765;SDS011;55756;45.582;11.484;2023-05-03T05:17:00;6.05;;;2.50;;
68765;SDS011;55756;45.582;11.484;2023-05-03T05:19:26;4.43;;;2.17;;
68765;SDS011;55756;45.582;11.484;2023-05-03T05:21:51;6.85;;;2.22;;
68765;SDS011;55756;45.582;11.484;2023-05-03T05:24:19;5.13;;;1.90;;
68765;SDS011;55756;45.582;11.484;2023-05-03T05:26:45;4.90;;;1.90;;
68765;SDS011;55756;45.582;11.484;2023-05-03T05:29:13;5.53;;;1.70;;
68765;SDS011;55756;45.582;11.484;2023-05-03T05:31:39;4.60;;;1.67;;
68765;SDS011;55756;45.582;11.484;2023-05-03T05:34:06;5.00;;;1.60;;
68765;SDS011;55756;45.582;11.484;2023-05-03T05:36:34;3.03;;;1.60;;
68765;SDS011;55756;45.582;11.484;2023-05-03T05:39:00;5.82;;;1.77;;
68765;SDS011;55756;45.582;11.484;2023-05-03T05:41:28;5.50;;;1.77;;
68765;SDS011;55756;45.582;11.484;2023-05-03T05:43:53;4.85;;;1.77;;
68765;SDS011;55756;45.582;11.484;2023-05-03T05:46:19;5.32;;;1.73;;
68765;SDS011;55756;45.582;11.484;2023-05-03T05:48:47;4.85;;;1.70;;
68765;SDS011;55756;45.582;11.484;2023-05-03T05:53:41;4.70;;;1.65;;
68765;SDS011;55756;45.582;11.484;2023-05-03T05:56:07;4.03;;;1.60;;
68765;SDS011;55756;45.582;11.484;2023-05-03T05:58:35;5.80;;;1.80;;
68765;SDS011;55756;45.582;11.484;2023-05-03T06:01:04;4.15;;;1.65;;
68765;SDS011;55756;45.582;11.484;2023-05-03T06:03:34;4.35;;;1.70;;
68765;SDS011;55756;45.582;11.484;2023-05-03T06:06:02;4.88;;;1.80;;
68765;SDS011;55756;45.582;11.484;2023-05-03T06:08:28;3.65;;;1.65;;
68765;SDS011;55756;45.582;11.484;2023-05-03T06:10:54;6.35;;;1.83;;
68765;SDS011;55756;45.582;11.484;2023-05-03T06:13:22;4.88;;;1.60;;
68765;SDS011;55756;45.582;11.484;2023-05-03T06:15:49;4.90;;;1.58;;
68765;SDS011;55756;45.582;11.484;2023-05-03T06:18:16;5.07;;;1.50;;
68765;SDS011;55756;45.582;11.484;2023-05-03T06:20:43;2.78;;;1.40;;
68765;SDS011;55756;45.582;11.484;2023-05-03T06:23:12;7.28;;;1.77;;
68765;SDS011;55756;45.582;11.484;2023-05-03T06:25:38;4.00;;;1.90;;
68765;SDS011;55756;45.582;11.484;2023-05-03T06:28:04;4.32;;;1.70;;
68765;SDS011;55756;45.582;11.484;2023-05-03T06:30:32;4.10;;;1.50;;
68765;SDS011;55756;45.582;11.484;2023-05-03T06:33:11;3.10;;;1.48;;
68765;SDS011;55756;45.582;11.484;2023-05-03T06:35:39;3.50;;;1.50;;
68765;SDS011;55756;45.582;11.484;2023-05-03T06:38:06;5.20;;;1.50;;
68765;SDS011;55756;45.582;11.484;2023-05-03T06:40:32;2.78;;;1.40;;
68765;SDS011;55756;45.582;11.484;2023-05-03T06:42:58;3.88;;;1.60;;
68765;SDS011;55756;45.582;11.484;2023-05-03T06:45:33;3.92;;;1.70;;
68765;SDS011;55756;45.582;11.484;2023-05-03T06:47:59;4.70;;;1.60;;
68765;SDS011;55756;45.582;11.484;2023-05-03T06:50:25;4.18;;;1.77;;
68765;SDS011;55756;45.582;11.484;2023-05-03T06:52:52;3.78;;;1.70;;
68765;SDS011;55756;45.582;11.484;2023-05-03T06:55:18;4.60;;;1.80;;
68765;SDS011;55756;45.582;11.484;2023-05-03T06:57:44;5.80;;;2.10;;
68765;SDS011;55756;45.582;11.484;2023-05-03T07:00:12;5.30;;;1.63;;
68765;SDS011;55756;45.582;11.484;2023-05-03T07:02:40;4.15;;;1.83;;
68765;SDS011;55756;45.582;11.484;2023-05-03T07:05:06;4.80;;;2.08;;
68765;SDS011;55756;45.582;11.484;2023-05-03T07:07:32;8.48;;;2.13;;
68765;SDS011;55756;45.582;11.484;2023-05-03T07:09:58;6.05;;;2.05;;
68765;SDS011;55756;45.582;11.484;2023-05-03T07:12:24;4.60;;;2.00;;
68765;SDS011;55756;45.582;11.484;2023-05-03T07:14:53;4.63;;;1.80;;
68765;SDS011;55756;45.582;11.484;2023-05-03T07:17:19;5.10;;;2.00;;
68765;SDS011;55756;45.582;11.484;2023-05-03T07:22:15;5.15;;;2.20;;
68765;SDS011;55756;45.582;11.484;2023-05-03T07:24:41;5.40;;;2.00;;
68765;SDS011;55756;45.582;11.484;2023-05-03T07:27:07;4.85;;;2.03;;
68765;SDS011;55756;45.582;11.484;2023-05-03T07:29:33;6.22;;;2.20;;
68765;SDS011;55756;45.582;11.484;2023-05-03T07:31:58;4.38;;;1.80;;
68765;SDS011;55756;45.582;11.484;2023-05-03T07:34:24;7.22;;;1.95;;
68765;SDS011;55756;45.582;11.484;2023-05-03T07:36:50;4.28;;;1.80;;
68765;SDS011;55756;45.582;11.484;2023-05-03T07:39:16;5.03;;;1.80;;
68765;SDS011;55756;45.582;11.484;2023-05-03T07:41:43;3.95;;;1.60;;
68765;SDS011;55756;45.582;11.484;2023-05-03T07:44:09;3.63;;;1.50;;
68765;SDS011;55756;45.582;11.484;2023-05-03T07:46:34;4.10;;;1.60;;
68765;SDS011;55756;45.582;11.484;2023-05-03T07:49:01;5.53;;;1.63;;
68765;SDS011;55756;45.582;11.484;2023-05-03T07:51:28;4.05;;;1.60;;
68765;SDS011;55756;45.582;11.484;2023-05-03T07:53:54;5.18;;;1.63;;
68765;SDS011;55756;45.582;11.484;2023-05-03T07:56:20;2.95;;;1.50;;
68765;SDS011;55756;45.582;11.484;2023-05-03T07:58:47;5.07;;;1.42;;
68765;SDS011;55756;45.582;11.484;2023-05-03T08:01:12;3.80;;;1.60;;
68765;SDS011;55756;45.582;11.484;2023-05-03T08:03:38;4.80;;;1.52;;
68765;SDS011;55756;45.582;11.484;2023-05-03T08:06:04;5.72;;;1.60;;
68765;SDS011;55756;45.582;11.484;2023-05-03T08:08:31;5.43;;;1.50;;
68765;SDS011;55756;45.582;11.484;2023-05-03T08:10:58;4.03;;;1.55;;
68765;SDS011;55756;45.582;11.484;2023-05-03T08:13:23;4.72;;;1.70;;
68765;SDS011;55756;45.582;11.484;2023-05-03T08:15:49;4.22;;;1.70;;
68765;SDS011;55756;45.582;11.484;2023-05-03T08:18:15;6.40;;;1.60;;
68765;SDS011;55756;45.582;11.484;2023-05-03T08:20:41;5.03;;;1.65;;
68765;SDS011;55756;45.582;11.484;2023-05-03T08:23:07;4.35;;;1.60;;
68765;SDS011;55756;45.582;11.484;2023-05-03T08:25:33;5.68;;;1.90;;
68765;SDS011;55756;45.582;11.484;2023-05-03T08:28:01;4.93;;;1.90;;
68765;SDS011;55756;45.582;11.484;2023-05-03T08:30:27;6.75;;;2.00;;
68765;SDS011;55756;45.582;11.484;2023-05-03T08:32:54;5.88;;;2.03;;
68765;SDS011;55756;45.582;11.484;2023-05-03T08:35:20;6.65;;;2.10;;
68765;SDS011;55756;45.582;11.484;2023-05-03T08:37:46;5.47;;;1.85;;
68765;SDS011;55756;45.582;11.484;2023-05-03T08:40:12;6.15;;;1.95;;
68765;SDS011;55756;45.582;11.484;2023-05-03T08:42:42;8.27;;;1.73;;
68765;SDS011;55756;45.582;11.484;2023-05-03T08:45:10;4.25;;;1.60;;
68765;SDS011;55756;45.582;11.484;2023-05-03T08:47:38;5.53;;;1.80;;
68765;SDS011;55756;45.582;11.484;2023-05-03T08:50:06;3.65;;;1.50;;
68765;SDS011;55756;45.582;11.484;2023-05-03T08:52:33;6.30;;;2.20;;
68765;SDS011;55756;45.582;11.484;2023-05-03T08:54:59;4.57;;;2.05;;
68765;SDS011;55756;45.582;11.484;2023-05-03T08:57:25;5.50;;;1.58;;
68765;SDS011;55756;45.582;11.484;2023-05-03T08:59:52;3.38;;;1.33;;
68765;SDS011;55756;45.582;11.484;2023-05-03T09:02:21;4.22;;;1.20;;
68765;SDS011;55756;45.582;11.484;2023-05-03T09:04:47;1.63;;;1.00;;
68765;SDS011;55756;45.582;11.484;2023-05-03T09:07:12;2.38;;;1.10;;
68765;SDS011;55756;45.582;11.484;2023-05-03T09:09:40;1.67;;;0.90;;
68765;SDS011;55756;45.582;11.484;2023-05-03T09:12:07;2.67;;;1.00;;
68765;SDS011;55756;45.582;11.484;2023-05-03T09:14:45;2.03;;;1.00;;
68765;SDS011;55756;45.582;11.484;2023-05-03T09:17:17;1.83;;;0.90;;
68765;SDS011;55756;45.582;11.484;2023-05-03T09:19:57;2.90;;;1.10;;
68765;SDS011;55756;45.582;11.484;2023-05-03T09:22:27;3.05;;;0.90;;
68765;SDS011;55756;45.582;11.484;2023-05-03T09:24:57;2.10;;;1.02;;
68765;SDS011;55756;45.582;11.484;2023-05-03T09:27:25;3.00;;;1.00;;
68765;SDS011;55756;45.582;11.484;2023-05-03T09:29:52;4.68;;;1.10;;
68765;SDS011;55756;45.582;11.484;2023-05-03T09:32:18;3.25;;;1.00;;
68765;SDS011;55756;45.582;11.484;2023-05-03T09:34:45;3.65;;;1.10;;
68765;SDS011;55756;45.582;11.484;2023-05-03T09:37:11;2.03;;;1.00;;
68765;SDS011;55756;45.582;11.484;2023-05-03T09:39:41;2.60;;;1.20;;
68765;SDS011;55756;45.582;11.484;2023-05-03T09:42:14;1.77;;;0.88;;
68765;SDS011;55756;45.582;11.484;2023-05-03T09:44:44;1.77;;;0.90;;
68765;SDS011;55756;45.582;11.484;2023-05-03T09:47:16;2.75;;;0.95;;
68765;SDS011;55756;45.582;11.484;2023-05-03T09:49:49;2.05;;;0.95;;
68765;SDS011;55756;45.582;11.484;2023-05-03T09:52:15;3.28;;;1.00;;
68765;SDS011;55756;45.582;11.484;2023-05-03T09:54:41;1.52;;;0.90;;
68765;SDS011;55756;45.582;11.484;2023-05-03T09:57:07;2.63;;;1.10;;
68765;SDS011;55756;45.582;11.484;2023-05-03T09:59:34;2.15;;;0.98;;
68765;SDS011;55756;45.582;11.484;2023-05-03T10:02:02;2.92;;;1.00;;
68765;SDS011;55756;45.582;11.484;2023-05-03T10:07:01;4.30;;;1.00;;
68765;SDS011;55756;45.582;11.484;2023-05-03T10:12:06;3.45;;;1.20;;
68765;SDS011;55756;45.582;11.484;2023-05-03T10:17:00;3.08;;;1.10;;
68765;SDS011;55756;45.582;11.484;2023-05-03T10:22:05;3.60;;;1.13;;
68765;SDS011;55756;45.582;11.484;2023-05-03T10:24:32;3.13;;;1.20;;
68765;SDS011;55756;45.582;11.484;2023-05-03T10:26:59;4.20;;;1.38;;
68765;SDS011;55756;45.582;11.484;2023-05-03T10:35:03;2.22;;;1.20;;
68765;SDS011;55756;45.582;11.484;2023-05-03T10:37:33;5.72;;;1.50;;
68765;SDS011;55756;45.582;11.484;2023-05-03T10:40:06;6.57;;;2.70;;
68765;SDS011;55756;45.582;11.484;2023-05-03T10:42:36;4.00;;;1.40;;
68765;SDS011;55756;45.582;11.484;2023-05-03T10:45:03;4.75;;;1.48;;
68765;SDS011;55756;45.582;11.484;2023-05-03T10:47:31;3.83;;;1.38;;
68765;SDS011;55756;45.582;11.484;2023-05-03T10:55:10;3.90;;;1.40;;
68765;SDS011;55756;45.582;11.484;2023-05-03T10:57:41;3.70;;;1.10;;
68765;SDS011;55756;45.582;11.484;2023-05-03T11:00:11;3.55;;;1.30;;
68765;SDS011;55756;45.582;11.484;2023-05-03T11:05:32;3.30;;;1.40;;
68765;SDS011;55756;45.582;11.484;2023-05-03T11:08:17;3.42;;;1.30;;
68765;SDS011;55756;45.582;11.484;2023-05-03T11:10:48;2.28;;;1.08;;
68765;SDS011;55756;45.582;11.484;2023-05-03T11:13:15;2.53;;;1.10;;
68765;SDS011;55756;45.582;11.484;2023-05-03T11:15:41;3.90;;;1.20;;
68765;SDS011;55756;45.582;11.484;2023-05-03T11:18:08;3.10;;;1.20;;
68765;SDS011;55756;45.582;11.484;2023-05-03T11:20:38;3.90;;;1.08;;
68765;SDS011;55756;45.582;11.484;2023-05-03T11:23:04;4.65;;;1.30;;
68765;SDS011;55756;45.582;11.484;2023-05-03T11:25:33;4.13;;;1.40;;
68765;SDS011;55756;45.582;11.484;2023-05-03T11:27:59;3.00;;;1.27;;
68765;SDS011;55756;45.582;11.484;2023-05-03T11:30:31;3.90;;;1.10;;
68765;SDS011;55756;45.582;11.484;2023-05-03T11:32:59;4.72;;;1.50;;
68765;SDS011;55756;45.582;11.484;2023-05-03T11:35:27;3.08;;;1.33;;
68765;SDS011;55756;45.582;11.484;2023-05-03T11:37:54;3.43;;;1.40;;
68765;SDS011;55756;45.582;11.484;2023-05-03T11:40:20;6.53;;;1.60;;
68765;SDS011;55756;45.582;11.484;2023-05-03T11:42:50;3.92;;;1.33;;
68765;SDS011;55756;45.582;11.484;2023-05-03T11:45:18;3.03;;;1.30;;
68765;SDS011;55756;45.582;11.484;2023-05-03T11:47:46;4.07;;;1.30;;
68765;SDS011;55756;45.582;11.484;2023-05-03T11:50:12;3.08;;;1.30;;
68765;SDS011;55756;45.582;11.484;2023-05-03T11:52:37;4.10;;;1.67;;
68765;SDS011;55756;45.582;11.484;2023-05-03T11:55:06;4.70;;;1.45;;
68765;SDS011;55756;45.582;11.484;2023-05-03T11:57:33;4.22;;;1.30;;
68765;SDS011;55756;45.582;11.484;2023-05-03T12:00:10;3.95;;;1.40;;
68765;SDS011;55756;45.582;11.484;2023-05-03T12:02:39;4.40;;;1.00;;
68765;SDS011;55756;45.582;11.484;2023-05-03T12:05:05;1.98;;;1.10;;
68765;SDS011;55756;45.582;11.484;2023-05-03T12:07:33;1.73;;;1.10;;
68765;SDS011;55756;45.582;11.484;2023-05-03T12:10:15;1.92;;;0.93;;
68765;SDS011;55756;45.582;11.484;2023-05-03T12:12:51;1.70;;;0.95;;
68765;SDS011;55756;45.582;11.484;2023-05-03T12:15:25;1.58;;;0.90;;
68765;SDS011;55756;45.582;11.484;2023-05-03T12:17:54;1.92;;;1.00;;
68765;SDS011;55756;45.582;11.484;2023-05-03T12:20:22;1.48;;;0.90;;
68765;SDS011;55756;45.582;11.484;2023-05-03T12:22:52;1.95;;;1.13;;
68765;SDS011;55756;45.582;11.484;2023-05-03T12:25:20;2.45;;;1.00;;
68765;SDS011;55756;45.582;11.484;2023-05-03T12:27:46;2.00;;;0.80;;
68765;SDS011;55756;45.582;11.484;2023-05-03T12:30:13;2.78;;;0.90;;
68765;SDS011;55756;45.582;11.484;2023-05-03T12:32:39;3.95;;;0.90;;
68765;SDS011;55756;45.582;11.484;2023-05-03T12:35:05;1.13;;;0.90;;
68765;SDS011;55756;45.582;11.484;2023-05-03T12:37:35;2.22;;;1.00;;
68765;SDS011;55756;45.582;11.484;2023-05-03T12:40:04;1.98;;;1.00;;
68765;SDS011;55756;45.582;11.484;2023-05-03T12:42:31;1.30;;;0.80;;
68765;SDS011;55756;45.582;11.484;2023-05-03T12:45:00;3.17;;;1.10;;
68765;SDS011;55756;45.582;11.484;2023-05-03T12:47:26;2.58;;;0.90;;
68765;SDS011;55756;45.582;11.484;2023-05-03T12:49:52;2.35;;;0.90;;
68765;SDS011;55756;45.582;11.484;2023-05-03T12:52:19;1.52;;;0.90;;
68765;SDS011;55756;45.582;11.484;2023-05-03T12:54:46;2.67;;;0.80;;
68765;SDS011;55756;45.582;11.484;2023-05-03T12:57:12;3.33;;;1.00;;
68765;SDS011;55756;45.582;11.484;2023-05-03T12:59:39;1.70;;;1.00;;
68765;SDS011;55756;45.582;11.484;2023-05-03T13:02:06;3.45;;;0.90;;
68765;SDS011;55756;45.582;11.484;2023-05-03T13:04:33;3.90;;;1.00;;
68765;SDS011;55756;45.582;11.484;2023-05-03T13:06:59;2.22;;;0.90;;
68765;SDS011;55756;45.582;11.484;2023-05-03T13:09:25;2.88;;;1.00;;
68765;SDS011;55756;45.582;11.484;2023-05-03T13:11:51;2.33;;;0.90;;
68765;SDS011;55756;45.582;11.484;2023-05-03T13:14:17;2.85;;;1.02;;
68765;SDS011;55756;45.582;11.484;2023-05-03T13:16:44;3.42;;;1.10;;
68765;SDS011;55756;45.582;11.484;2023-05-03T13:19:11;2.38;;;1.00;;
68765;SDS011;55756;45.582;11.484;2023-05-03T13:21:37;2.85;;;1.00;;
68765;SDS011;55756;45.582;11.484;2023-05-03T13:24:03;3.95;;;1.00;;
68765;SDS011;55756;45.582;11.484;2023-05-03T13:26:30;2.03;;;0.90;;
68765;SDS011;55756;45.582;11.484;2023-05-03T13:28:57;2.70;;;1.00;;
68765;SDS011;55756;45.582;11.484;2023-05-03T13:31:23;2.33;;;0.90;;
68765;SDS011;55756;45.582;11.484;2023-05-03T13:33:51;2.70;;;0.88;;
68765;SDS011;55756;45.582;11.484;2023-05-03T13:36:19;2.25;;;0.90;;
68765;SDS011;55756;45.582;11.484;2023-05-03T13:38:48;3.13;;;0.90;;
68765;SDS011;55756;45.582;11.484;2023-05-03T13:41:14;3.30;;;1.00;;
68765;SDS011;55756;45.582;11.484;2023-05-03T13:43:40;2.40;;;0.90;;
68765;SDS011;55756;45.582;11.484;2023-05-03T13:46:07;1.10;;;0.85;;
68765;SDS011;55756;45.582;11.484;2023-05-03T13:48:33;2.08;;;0.93;;
68765;SDS011;55756;45.582;11.484;2023-05-03T13:51:09;3.55;;;1.02;;
68765;SDS011;55756;45.582;11.484;2023-05-03T13:53:36;2.05;;;0.82;;
68765;SDS011;55756;45.582;11.484;2023-05-03T13:56:05;2.03;;;1.00;;
68765;SDS011;55756;45.582;11.484;2023-05-03T13:58:31;1.80;;;0.70;;
68765;SDS011;55756;45.582;11.484;2023-05-03T14:01:00;3.03;;;1.00;;
68765;SDS011;55756;45.582;11.484;2023-05-03T14:03:26;1.92;;;0.70;;
68765;SDS011;55756;45.582;11.484;2023-05-03T14:05:51;1.70;;;0.70;;
68765;SDS011;55756;45.582;11.484;2023-05-03T14:08:17;1.67;;;0.70;;
68765;SDS011;55756;45.582;11.484;2023-05-03T14:10:43;4.03;;;0.80;;
68765;SDS011;55756;45.582;11.484;2023-05-03T14:13:09;6.20;;;0.70;;
68765;SDS011;55756;45.582;11.484;2023-05-03T14:15:38;6.22;;;0.70;;
68765;SDS011;55756;45.582;11.484;2023-05-03T14:18:05;2.03;;;0.70;;
68765;SDS011;55756;45.582;11.484;2023-05-03T14:20:33;3.90;;;0.70;;
68765;SDS011;55756;45.582;11.484;2023-05-03T14:22:59;2.17;;;0.73;;
68765;SDS011;55756;45.582;11.484;2023-05-03T14:25:34;1.63;;;0.60;;
68765;SDS011;55756;45.582;11.484;2023-05-03T14:27:59;1.73;;;0.60;;
68765;SDS011;55756;45.582;11.484;2023-05-03T14:30:25;2.85;;;0.70;;
68765;SDS011;55756;45.582;11.484;2023-05-03T14:32:51;1.67;;;0.60;;
68765;SDS011;55756;45.582;11.484;2023-05-03T14:35:17;2.65;;;0.63;;
68765;SDS011;55756;45.582;11.484;2023-05-03T14:37:44;2.13;;;0.70;;
68765;SDS011;55756;45.582;11.484;2023-05-03T14:40:11;0.98;;;0.60;;
68765;SDS011;55756;45.582;11.484;2023-05-03T14:42:37;3.45;;;0.70;;
68765;SDS011;55756;45.582;11.484;2023-05-03T14:45:03;0.82;;;0.60;;
68765;SDS011;55756;45.582;11.484;2023-05-03T14:47:30;2.78;;;0.70;;
68765;SDS011;55756;45.582;11.484;2023-05-03T14:49:56;3.05;;;0.80;;
68765;SDS011;55756;45.582;11.484;2023-05-03T14:52:22;7.55;;;1.00;;
68765;SDS011;55756;45.582;11.484;2023-05-03T14:54:48;2.35;;;1.00;;
68765;SDS011;55756;45.582;11.484;2023-05-03T14:57:13;6.63;;;1.10;;
68765;SDS011;55756;45.582;11.484;2023-05-03T14:59:40;4.85;;;1.27;;
68765;SDS011;55756;45.582;11.484;2023-05-03T15:02:06;3.65;;;1.40;;
68765;SDS011;55756;45.582;11.484;2023-05-03T15:04:32;4.80;;;1.45;;
68765;SDS011;55756;45.582;11.484;2023-05-03T15:06:59;6.13;;;1.77;;
68765;SDS011;55756;45.582;11.484;2023-05-03T15:09:26;5.80;;;1.80;;